Time;durP1;ratioP1;P1;durP2;ratioP2;P2;SDS_P1;SDS_P2;PMS_P1;PMS_P2;Temp;Humidity;BMP_temperature;BMP_pressure;BME280_temperature;BME280_humidity;BME280_pressure;Samples;Min_cycle;Max_cycle;Signal;HPM_P1;HPM_P2
2023/06/05 00:01:03;;;;;;;2.73;1.80;;;;;;;;;;5113967;28;20412;-79
2023/06/05 00:03:29;;;;;;;4.40;2.07;;;;;;;;;;5114432;28;20173;-86
2023/06/05 00:05:55;;;;;;;3.40;1.57;;;;;;;;;;5115188;28;20440;-78
2023/06/05 00:08:21;;;;;;;5.00;1.57;;;;;;;;;;5114332;28;20422;-84
2023/06/05 00:10:47;;;;;;;3.63;2.03;;;;;;;;;;5114643;28;20495;-82
2023/06/05 00:13:13;;;;;;;4.07;1.60;;;;;;;;;;5101435;28;20476;-84
2023/06/05 00:15:39;;;;;;;4.40;1.60;;;;;;;;;;5093769;28;20897;-77
2023/06/05 00:18:05;;;;;;;2.67;2.17;;;;;;;;;;5092018;28;20829;-85
2023/06/05 00:20:31;;;;;;;6.87;3.23;;;;;;;;;;5093923;28;20887;-85
2023/06/05 00:22:57;;;;;;;3.83;2.10;;;;;;;;;;5093669;28;20451;-84
2023/06/05 00:25:23;;;;;;;4.40;2.10;;;;;;;;;;5094011;28;21343;-86
2023/06/05 00:27:49;;;;;;;3.17;2.00;;;;;;;;;;5094091;28;20764;-83
2023/06/05 00:30:15;;;;;;;6.33;2.00;;;;;;;;;;5093871;28;20173;-84
2023/06/05 00:32:42;;;;;;;2.53;1.50;;;;;;;;;;5093770;28;20468;-79
2023/06/05 00:35:09;;;;;;;3.57;2.50;;;;;;;;;;5093569;28;20429;-85
2023/06/05 00:37:37;;;;;;;4.60;2.10;;;;;;;;;;5093412;28;20400;-87
2023/06/05 00:40:06;;;;;;;6.87;2.73;;;;;;;;;;5093823;28;20460;-85
2023/06/05 00:42:34;;;;;;;2.83;1.20;;;;;;;;;;5092163;28;20410;-87
2023/06/05 00:45:00;;;;;;;3.83;2.00;;;;;;;;;;5093848;28;20834;-88
2023/06/05 00:47:26;;;;;;;2.50;1.90;;;;;;;;;;5093820;28;20433;-88
2023/06/05 00:49:53;;;;;;;4.17;2.53;;;;;;;;;;5093704;28;20407;-88
2023/06/05 00:52:19;;;;;;;12.17;3.20;;;;;;;;;;5093176;28;20449;-86
2023/06/05 00:54:45;;;;;;;3.60;2.33;;;;;;;;;;5093465;28;20416;-87
2023/06/05 00:57:11;;;;;;;7.00;3.80;;;;;;;;;;5093473;28;20926;-86
2023/06/05 00:59:37;;;;;;;6.43;1.60;;;;;;;;;;5093415;28;20465;-86
2023/06/05 01:02:03;;;;;;;4.70;2.03;;;;;;;;;;5093411;28;20407;-84
2023/06/05 01:04:29;;;;;;;4.80;2.20;;;;;;;;;;5092021;28;20430;-87
2023/06/05 01:06:57;;;;;;;2.60;1.20;;;;;;;;;;5092955;28;20920;-83
2023/06/05 01:09:23;;;;;;;2.63;1.60;;;;;;;;;;5093456;28;20906;-88
2023/06/05 01:11:59;;;;;;;6.57;2.80;;;;;;;;;;5093425;28;20467;-87
2023/06/05 01:14:30;;;;;;;3.30;2.07;;;;;;;;;;5093169;28;20455;-82
2023/06/05 01:16:56;;;;;;;3.30;1.90;;;;;;;;;;5093098;28;20450;-78
2023/06/05 01:19:28;;;;;;;4.87;2.27;;;;;;;;;;5092007;28;20482;-86
2023/06/05 01:21:55;;;;;;;3.00;1.87;;;;;;;;;;5091626;28;20907;-88
2023/06/05 01:24:27;;;;;;;2.63;1.70;;;;;;;;;;5091974;28;20499;-79
2023/06/05 01:27:02;;;;;;;4.30;2.00;;;;;;;;;;5093219;28;20459;-78
2023/06/05 01:29:32;;;;;;;4.60;1.80;;;;;;;;;;5093146;28;20487;-87
2023/06/05 01:32:01;;;;;;;2.70;1.53;;;;;;;;;;5091759;28;20515;-83
2023/06/05 01:34:28;;;;;;;2.97;1.77;;;;;;;;;;5091583;28;20427;-81
2023/06/05 01:36:55;;;;;;;6.10;2.67;;;;;;;;;;5092675;28;20422;-79
2023/06/05 01:39:22;;;;;;;5.60;1.90;;;;;;;;;;5092968;28;20405;-83
2023/06/05 01:41:49;;;;;;;3.07;2.00;;;;;;;;;;5091672;28;20436;-83
2023/06/05 01:44:15;;;;;;;5.00;2.30;;;;;;;;;;5092932;28;20413;-90
2023/06/05 01:46:42;;;;;;;3.50;1.63;;;;;;;;;;5093610;28;20407;-78
2023/06/05 01:49:08;;;;;;;3.40;2.10;;;;;;;;;;5093524;28;20447;-89
2023/06/05 01:51:35;;;;;;;6.70;1.90;;;;;;;;;;5093202;28;20410;-79
2023/06/05 01:54:01;;;;;;;4.10;2.13;;;;;;;;;;5094968;28;20458;-90
2023/06/05 01:56:30;;;;;;;3.30;1.67;;;;;;;;;;5097743;28;20460;-91
2023/06/05 01:58:55;;;;;;;5.40;2.40;;;;;;;;;;5097941;28;20181;-90
2023/06/05 02:01:22;;;;;;;2.83;2.10;;;;;;;;;;5097862;28;20880;-90
2023/06/05 02:03:49;;;;;;;3.50;2.27;;;;;;;;;;5098000;28;20399;-91
2023/06/05 02:06:16;;;;;;;3.10;1.70;;;;;;;;;;5096868;28;20457;-86
2023/06/05 02:08:42;;;;;;;2.53;1.60;;;;;;;;;;5096603;28;20423;-89
2023/06/05 02:11:10;;;;;;;5.13;2.27;;;;;;;;;;5098865;28;20410;-84
2023/06/05 02:13:37;;;;;;;3.20;1.50;;;;;;;;;;5117108;28;20472;-89
2023/06/05 02:16:03;;;;;;;4.20;2.07;;;;;;;;;;5117340;28;20409;-83
2023/06/05 02:18:30;;;;;;;3.60;1.60;;;;;;;;;;5098634;28;20997;-89
2023/06/05 02:20:56;;;;;;;4.40;2.63;;;;;;;;;;5117112;28;20409;-87
2023/06/05 02:23:23;;;;;;;4.63;1.93;;;;;;;;;;5116583;28;20405;-90
2023/06/05 02:25:49;;;;;;;7.07;1.97;;;;;;;;;;5117087;28;20414;-89
2023/06/05 02:28:15;;;;;;;5.03;2.10;;;;;;;;;;5116965;28;20415;-90
2023/06/05 02:30:44;;;;;;;3.23;2.17;;;;;;;;;;5099064;28;20912;-89
2023/06/05 02:33:10;;;;;;;4.43;2.53;;;;;;;;;;5116919;28;20472;-79
2023/06/05 02:35:36;;;;;;;4.97;2.80;;;;;;;;;;5116944;28;20534;-86
2023/06/05 02:38:05;;;;;;;8.43;2.50;;;;;;;;;;5117193;28;20925;-83
2023/06/05 02:40:31;;;;;;;2.83;2.50;;;;;;;;;;5116258;28;20441;-77
2023/06/05 02:42:57;;;;;;;4.17;3.10;;;;;;;;;;5116280;28;20417;-83
2023/06/05 02:45:23;;;;;;;3.30;2.57;;;;;;;;;;5116158;28;20438;-77
2023/06/05 02:47:49;;;;;;;5.27;2.50;;;;;;;;;;5116201;28;20165;-77
2023/06/05 02:50:15;;;;;;;11.00;4.20;;;;;;;;;;5116181;28;20417;-78
2023/06/05 02:52:41;;;;;;;5.03;1.47;;;;;;;;;;5115682;28;20501;-85
2023/06/05 02:55:07;;;;;;;5.73;2.33;;;;;;;;;;5097758;28;20177;-78
2023/06/05 02:57:41;;;;;;;5.20;2.10;;;;;;;;;;5116031;28;20407;-79
2023/06/05 03:00:08;;;;;;;6.60;3.40;;;;;;;;;;5116036;28;20448;-78
2023/06/05 03:02:36;;;;;;;2.80;1.80;;;;;;;;;;5115919;28;20411;-78
2023/06/05 03:05:02;;;;;;;4.40;2.47;;;;;;;;;;5114968;28;20781;-83
2023/06/05 03:07:29;;;;;;;4.27;2.50;;;;;;;;;;5115467;28;20421;-83
2023/06/05 03:09:55;;;;;;;4.33;2.77;;;;;;;;;;5115892;28;20463;-77
2023/06/05 03:12:21;;;;;;;5.10;2.50;;;;;;;;;;5115721;28;20463;-86
2023/06/05 03:14:47;;;;;;;4.97;2.50;;;;;;;;;;5115664;28;20423;-78
2023/06/05 03:17:13;;;;;;;6.00;2.53;;;;;;;;;;5115505;28;20460;-85
2023/06/05 03:19:40;;;;;;;3.77;2.90;;;;;;;;;;5116068;28;20753;-88
2023/06/05 03:22:06;;;;;;;6.90;2.80;;;;;;;;;;5115483;28;20436;-87
2023/06/05 03:24:32;;;;;;;4.77;3.30;;;;;;;;;;5115951;28;20423;-79
2023/06/05 03:26:58;;;;;;;5.70;3.57;;;;;;;;;;5115953;28;20472;-85
2023/06/05 03:29:24;;;;;;;4.93;2.60;;;;;;;;;;5115670;28;20178;-88
2023/06/05 03:31:50;;;;;;;3.90;2.23;;;;;;;;;;5115860;28;20404;-89
2023/06/05 03:34:16;;;;;;;5.47;3.07;;;;;;;;;;5115611;28;20526;-82
2023/06/05 03:36:42;;;;;;;6.37;3.20;;;;;;;;;;5115311;28;20403;-78
2023/06/05 03:39:08;;;;;;;6.53;3.40;;;;;;;;;;5114711;28;20418;-84
2023/06/05 03:41:35;;;;;;;4.13;2.33;;;;;;;;;;5115217;28;20170;-82
2023/06/05 03:44:01;;;;;;;4.30;2.93;;;;;;;;;;5115144;28;20425;-81
2023/06/05 03:46:29;;;;;;;5.13;3.10;;;;;;;;;;5115103;28;20410;-82
2023/06/05 03:48:58;;;;;;;4.30;2.83;;;;;;;;;;5129898;27;20512;-89
2023/06/05 03:51:29;;;;;;;4.40;3.23;;;;;;;;;;5135524;27;20489;-85
2023/06/05 03:53:56;;;;;;;6.83;3.53;;;;;;;;;;5135799;27;20569;-87
2023/06/05 03:56:23;;;;;;;4.03;2.30;;;;;;;;;;5135535;27;20393;-88
2023/06/05 03:58:49;;;;;;;7.63;3.97;;;;;;;;;;5135526;27;20411;-87
2023/06/05 04:01:18;;;;;;;5.30;2.90;;;;;;;;;;5135484;27;20454;-79
2023/06/05 04:03:44;;;;;;;6.80;3.57;;;;;;;;;;5135365;27;20410;-85
2023/06/05 04:06:10;;;;;;;5.10;3.40;;;;;;;;;;5116509;27;20410;-85
2023/06/05 04:08:37;;;;;;;4.03;1.80;;;;;;;;;;5135186;27;20256;-84
2023/06/05 04:11:02;;;;;;;5.53;3.20;;;;;;;;;;5135075;27;20457;-83
2023/06/05 04:13:29;;;;;;;5.80;3.10;;;;;;;;;;5135069;27;20464;-80
2023/06/05 04:15:55;;;;;;;4.17;2.87;;;;;;;;;;5135091;27;20184;-87
2023/06/05 04:18:22;;;;;;;4.87;3.50;;;;;;;;;;5134903;27;20554;-87
2023/06/05 04:20:48;;;;;;;5.63;3.23;;;;;;;;;;5134962;27;20454;-79
2023/06/05 04:23:14;;;;;;;8.20;2.70;;;;;;;;;;5135004;27;20881;-79
2023/06/05 04:25:45;;;;;;;8.87;3.33;;;;;;;;;;5135390;27;20176;-89
2023/06/05 04:28:11;;;;;;;4.30;2.97;;;;;;;;;;5135335;27;20420;-87
2023/06/05 04:30:37;;;;;;;6.33;3.20;;;;;;;;;;5135191;27;20408;-87
2023/06/05 04:33:06;;;;;;;7.80;3.80;;;;;;;;;;5135063;27;20480;-88
2023/06/05 04:35:33;;;;;;;9.50;4.30;;;;;;;;;;5135063;27;20403;-88
2023/06/05 04:38:00;;;;;;;9.77;3.53;;;;;;;;;;5116464;27;20982;-88
2023/06/05 04:40:26;;;;;;;7.43;4.30;;;;;;;;;;5135214;27;20431;-88
2023/06/05 04:42:54;;;;;;;5.07;2.67;;;;;;;;;;5134934;27;20920;-89
2023/06/05 04:45:21;;;;;;;6.43;3.60;;;;;;;;;;5134950;27;20912;-88
2023/06/05 04:47:46;;;;;;;6.93;3.30;;;;;;;;;;5135127;27;20414;-89
2023/06/05 04:50:22;;;;;;;7.23;3.07;;;;;;;;;;5134806;27;20402;-87
2023/06/05 04:52:48;;;;;;;7.43;3.73;;;;;;;;;;5134338;27;20253;-87
2023/06/05 04:55:14;;;;;;;5.30;2.90;;;;;;;;;;5134504;27;20819;-87
2023/06/05 04:57:40;;;;;;;7.33;4.10;;;;;;;;;;5135226;27;20219;-89
2023/06/05 05:00:07;;;;;;;6.30;3.90;;;;;;;;;;5135327;27;20437;-91
2023/06/05 05:02:33;;;;;;;5.80;3.10;;;;;;;;;;5107747;27;20220;-87
2023/06/05 05:04:59;;;;;;;6.40;3.47;;;;;;;;;;5110377;28;20413;-85
2023/06/05 05:07:26;;;;;;;6.73;3.37;;;;;;;;;;5114010;28;20415;-90
2023/06/05 05:09:52;;;;;;;6.63;3.60;;;;;;;;;;5113209;28;20420;-90
2023/06/05 05:12:18;;;;;;;8.83;4.50;;;;;;;;;;5114305;28;20495;-89
2023/06/05 05:14:44;;;;;;;6.00;4.27;;;;;;;;;;5119432;27;20562;-90
2023/06/05 05:17:10;;;;;;;6.00;3.90;;;;;;;;;;5114421;28;20228;-90
2023/06/05 05:19:40;;;;;;;6.27;3.23;;;;;;;;;;5113326;28;20508;-91
2023/06/05 05:22:06;;;;;;;6.10;3.47;;;;;;;;;;5110699;28;20405;-78
2023/06/05 05:24:32;;;;;;;5.00;3.10;;;;;;;;;;5113171;28;20398;-88
2023/06/05 05:26:58;;;;;;;6.27;3.67;;;;;;;;;;5112983;28;20400;-86
2023/06/05 05:29:24;;;;;;;5.30;3.93;;;;;;;;;;5112682;28;20913;-86
2023/06/05 05:31:50;;;;;;;5.37;3.37;;;;;;;;;;5112877;28;20421;-85
2023/06/05 05:34:17;;;;;;;7.93;4.60;;;;;;;;;;5113152;28;20468;-84
2023/06/05 05:36:43;;;;;;;5.17;2.80;;;;;;;;;;5112346;28;20405;-84
2023/06/05 05:39:09;;;;;;;8.07;3.53;;;;;;;;;;5112599;28;20503;-84
2023/06/05 05:41:35;;;;;;;7.60;4.50;;;;;;;;;;5113270;28;20885;-83
2023/06/05 05:44:01;;;;;;;7.27;4.37;;;;;;;;;;5113242;28;20762;-85
2023/06/05 05:46:27;;;;;;;7.20;3.87;;;;;;;;;;5113854;28;20406;-88
2023/06/05 05:48:54;;;;;;;4.83;3.27;;;;;;;;;;5113399;28;20831;-85
2023/06/05 05:51:21;;;;;;;5.50;2.63;;;;;;;;;;5112664;28;20305;-84
2023/06/05 05:53:47;;;;;;;5.60;3.37;;;;;;;;;;5112950;28;20495;-80
2023/06/05 05:56:13;;;;;;;7.93;3.37;;;;;;;;;;5113118;28;20817;-85
2023/06/05 05:58:38;;;;;;;8.80;4.17;;;;;;;;;;5095036;28;20515;-80
2023/06/05 06:01:04;;;;;;;4.83;3.53;;;;;;;;;;5112883;28;20440;-87
2023/06/05 06:03:33;;;;;;;5.30;2.50;;;;;;;;;;5111497;28;20422;-81
2023/06/05 06:06:03;;;;;;;7.33;3.90;;;;;;;;;;5112714;28;20415;-79
2023/06/05 06:08:29;;;;;;;5.63;3.47;;;;;;;;;;5113091;28;20833;-81
2023/06/05 06:10:55;;;;;;;4.20;2.03;;;;;;;;;;5113115;28;20398;-82
2023/06/05 06:13:21;;;;;;;4.30;2.70;;;;;;;;;;5112943;28;20908;-79
2023/06/05 06:15:47;;;;;;;8.17;3.60;;;;;;;;;;5112975;28;20171;-80
2023/06/05 06:18:13;;;;;;;5.07;3.07;;;;;;;;;;5112844;28;20894;-80
2023/06/05 06:20:39;;;;;;;5.10;1.97;;;;;;;;;;5112733;28;20397;-80
2023/06/05 06:23:14;;;;;;;4.33;2.17;;;;;;;;;;5114693;28;20416;-82
2023/06/05 06:25:40;;;;;;;5.40;2.23;;;;;;;;;;5115433;28;20408;-81
2023/06/05 06:28:07;;;;;;;6.33;4.27;;;;;;;;;;5095439;28;20417;-92
2023/06/05 06:30:33;;;;;;;4.00;2.27;;;;;;;;;;5096159;28;20625;-81
2023/06/05 06:32:59;;;;;;;4.47;2.93;;;;;;;;;;5096022;28;20468;-80
2023/06/05 06:35:25;;;;;;;5.20;2.60;;;;;;;;;;5112933;28;20405;-80
2023/06/05 06:37:54;;;;;;;6.13;2.67;;;;;;;;;;5094801;28;20438;-79
2023/06/05 06:40:20;;;;;;;3.13;2.43;;;;;;;;;;5113179;28;20932;-79
2023/06/05 06:42:46;;;;;;;5.23;2.60;;;;;;;;;;5116436;28;20423;-79
2023/06/05 06:45:12;;;;;;;4.40;3.33;;;;;;;;;;5116329;28;20417;-80
2023/06/05 06:47:42;;;;;;;4.60;3.00;;;;;;;;;;5117122;28;20653;-87
2023/06/05 06:50:08;;;;;;;4.30;2.77;;;;;;;;;;5116263;28;20420;-80
2023/06/05 06:52:34;;;;;;;6.23;3.27;;;;;;;;;;5115749;28;20450;-79
2023/06/05 06:55:00;;;;;;;4.13;2.37;;;;;;;;;;5116269;28;20447;-80
2023/06/05 06:57:26;;;;;;;5.13;2.20;;;;;;;;;;5115988;28;20167;-81
2023/06/05 06:59:53;;;;;;;2.87;2.37;;;;;;;;;;5116042;28;20424;-80
2023/06/05 07:02:20;;;;;;;3.77;2.30;;;;;;;;;;5116265;28;20220;-83
2023/06/05 07:04:46;;;;;;;4.47;1.93;;;;;;;;;;5116017;28;20442;-80
2023/06/05 07:07:14;;;;;;;5.03;2.33;;;;;;;;;;5115325;28;20900;-80
2023/06/05 07:09:40;;;;;;;3.30;1.60;;;;;;;;;;5097675;28;20783;-79
2023/06/05 07:12:08;;;;;;;4.80;1.57;;;;;;;;;;5115893;28;20408;-83
2023/06/05 07:14:34;;;;;;;3.50;2.00;;;;;;;;;;5115660;28;20440;-80
2023/06/05 07:17:00;;;;;;;2.70;1.33;;;;;;;;;;5115628;28;20492;-80
2023/06/05 07:19:27;;;;;;;3.20;1.87;;;;;;;;;;5115801;28;20414;-81
2023/06/05 07:21:54;;;;;;;3.60;1.70;;;;;;;;;;5115306;28;20484;-80
2023/06/05 07:24:20;;;;;;;3.23;2.40;;;;;;;;;;5115633;28;20406;-80
2023/06/05 07:26:45;;;;;;;2.97;1.63;;;;;;;;;;5115532;28;20479;-80
2023/06/05 07:29:12;;;;;;;3.77;1.87;;;;;;;;;;5115505;28;20168;-80
2023/06/05 07:31:38;;;;;;;2.70;1.67;;;;;;;;;;5115529;28;20250;-80
2023/06/05 07:34:05;;;;;;;3.20;1.40;;;;;;;;;;5115342;28;20821;-80
2023/06/05 07:36:31;;;;;;;2.57;1.20;;;;;;;;;;5114960;28;20413;-81
2023/06/05 07:38:57;;;;;;;3.23;1.30;;;;;;;;;;5115322;28;20443;-80
2023/06/05 07:41:23;;;;;;;2.37;1.77;;;;;;;;;;5115352;28;20183;-81
2023/06/05 07:43:48;;;;;;;2.23;1.23;;;;;;;;;;5115283;28;20183;-80
2023/06/05 07:46:16;;;;;;;3.63;1.40;;;;;;;;;;5115050;28;20176;-80
2023/06/05 07:48:42;;;;;;;1.90;0.63;;;;;;;;;;5115073;28;20410;-84
2023/06/05 07:51:08;;;;;;;2.20;0.97;;;;;;;;;;5114146;28;20394;-79
2023/06/05 07:53:35;;;;;;;1.70;1.07;;;;;;;;;;5114938;28;20458;-79
2023/06/05 07:56:04;;;;;;;3.93;0.93;;;;;;;;;;5114852;28;20389;-78
2023/06/05 07:58:30;;;;;;;4.10;1.47;;;;;;;;;;5114154;28;20830;-78
2023/06/05 08:00:59;;;;;;;3.17;0.83;;;;;;;;;;5096472;28;20504;-79
2023/06/05 08:03:25;;;;;;;2.13;1.23;;;;;;;;;;5096600;28;20600;-79
2023/06/05 08:05:51;;;;;;;2.40;1.20;;;;;;;;;;5114392;28;20398;-79
2023/06/05 08:08:17;;;;;;;4.20;1.70;;;;;;;;;;5114745;28;20405;-80
2023/06/05 08:10:44;;;;;;;1.40;1.10;;;;;;;;;;5114587;28;20893;-79
2023/06/05 08:13:10;;;;;;;1.90;1.10;;;;;;;;;;5114438;28;20468;-79
2023/06/05 08:15:36;;;;;;;2.77;1.00;;;;;;;;;;5114524;28;20429;-79
2023/06/05 08:18:02;;;;;;;2.17;1.20;;;;;;;;;;5092664;28;20564;-79
2023/06/05 08:20:28;;;;;;;2.27;0.83;;;;;;;;;;5093975;28;20819;-78
2023/06/05 08:22:57;;;;;;;2.00;0.67;;;;;;;;;;5094180;28;20493;-79
2023/06/05 08:25:27;;;;;;;1.77;1.17;;;;;;;;;;5094126;28;20221;-80
2023/06/05 08:27:53;;;;;;;2.90;0.70;;;;;;;;;;5093941;28;20519;-79
2023/06/05 08:30:19;;;;;;;2.17;0.80;;;;;;;;;;5094059;28;20398;-81
2023/06/05 08:32:45;;;;;;;3.60;0.70;;;;;;;;;;5093904;28;20527;-80
2023/06/05 08:35:12;;;;;;;2.00;0.60;;;;;;;;;;5093445;28;20501;-79
2023/06/05 08:37:38;;;;;;;2.93;0.63;;;;;;;;;;5093914;28;20562;-86
2023/06/05 08:40:06;;;;;;;1.33;0.87;;;;;;;;;;5093557;28;20827;-81
2023/06/05 08:42:32;;;;;;;1.73;0.73;;;;;;;;;;5086304;28;20426;-79
2023/06/05 08:44:58;;;;;;;1.20;0.43;;;;;;;;;;5087336;28;20423;-80
2023/06/05 08:47:27;;;;;;;0.70;0.40;;;;;;;;;;5083516;28;20514;-83
2023/06/05 08:49:54;;;;;;;1.67;0.53;;;;;;;;;;5082393;28;20799;-79
2023/06/05 08:52:22;;;;;;;2.00;0.87;;;;;;;;;;5081392;28;20821;-79
2023/06/05 08:54:49;;;;;;;3.37;1.07;;;;;;;;;;5082717;28;20432;-84
2023/06/05 08:57:15;;;;;;;1.73;0.57;;;;;;;;;;5080834;28;20465;-80
2023/06/05 08:59:42;;;;;;;1.97;0.60;;;;;;;;;;5081773;28;20434;-79
2023/06/05 09:02:09;;;;;;;2.40;0.77;;;;;;;;;;5083353;28;20448;-80
2023/06/05 09:04:35;;;;;;;1.30;0.50;;;;;;;;;;5077871;28;20399;-80
2023/06/05 09:07:01;;;;;;;1.27;0.50;;;;;;;;;;5081609;28;20422;-80
2023/06/05 09:09:27;;;;;;;0.80;0.57;;;;;;;;;;5082927;28;20188;-81
2023/06/05 09:12:03;;;;;;;1.37;0.63;;;;;;;;;;5081636;28;21670;-80
2023/06/05 09:14:31;;;;;;;4.13;1.00;;;;;;;;;;5075684;28;20477;-81
2023/06/05 09:16:57;;;;;;;1.57;0.50;;;;;;;;;;5073914;28;20415;-79
2023/06/05 09:19:26;;;;;;;2.67;0.60;;;;;;;;;;5093242;28;20448;-79
2023/06/05 09:21:54;;;;;;;2.03;0.47;;;;;;;;;;5092867;28;20500;-81
2023/06/05 09:24:21;;;;;;;1.90;1.30;;;;;;;;;;5093201;28;20460;-80
2023/06/05 09:26:47;;;;;;;4.20;0.97;;;;;;;;;;5093126;28;20438;-80
2023/06/05 09:29:14;;;;;;;2.10;0.77;;;;;;;;;;5093101;28;20410;-80
2023/06/05 09:31:43;;;;;;;5.23;0.73;;;;;;;;;;5093124;28;20418;-80
2023/06/05 09:34:09;;;;;;;2.40;0.87;;;;;;;;;;5092988;28;20473;-81
2023/06/05 09:36:45;;;;;;;2.07;0.73;;;;;;;;;;5092738;28;20402;-83
2023/06/05 09:39:17;;;;;;;1.23;0.90;;;;;;;;;;5093137;28;20167;-81
2023/06/05 09:41:44;;;;;;;2.63;1.17;;;;;;;;;;5092961;28;20422;-80
2023/06/05 09:44:10;;;;;;;1.10;0.57;;;;;;;;;;5092893;28;20421;-81
2023/06/05 09:46:55;;;;;;;2.37;0.60;;;;;;;;;;5092775;28;20403;-80
2023/06/05 09:49:21;;;;;;;2.17;1.00;;;;;;;;;;5092913;28;20913;-79
2023/06/05 09:51:48;;;;;;;1.03;0.57;;;;;;;;;;5092596;28;20405;-80
2023/06/05 09:54:14;;;;;;;4.20;1.30;;;;;;;;;;5092717;28;20848;-79
2023/06/05 09:56:44;;;;;;;2.00;0.93;;;;;;;;;;5074651;28;20415;-80
2023/06/05 09:59:14;;;;;;;2.77;0.60;;;;;;;;;;5092724;28;20959;-80
2023/06/05 10:01:41;;;;;;;1.73;0.93;;;;;;;;;;5092790;28;20406;-82
2023/06/05 10:04:09;;;;;;;2.57;0.77;;;;;;;;;;5092803;28;20525;-80
2023/06/05 10:06:36;;;;;;;2.70;0.70;;;;;;;;;;5092378;28;20402;-80
2023/06/05 10:09:03;;;;;;;2.07;1.37;;;;;;;;;;5092731;28;20422;-82
2023/06/05 10:11:29;;;;;;;1.03;0.47;;;;;;;;;;5092722;28;20414;-80
2023/06/05 10:13:57;;;;;;;1.40;0.97;;;;;;;;;;5109011;28;21019;-79
2023/06/05 10:16:23;;;;;;;2.10;1.07;;;;;;;;;;5116817;28;20413;-80
2023/06/05 10:18:49;;;;;;;1.90;0.70;;;;;;;;;;5116868;28;20542;-80
2023/06/05 10:21:18;;;;;;;1.57;0.43;;;;;;;;;;5116543;28;20262;-82
2023/06/05 10:23:58;;;;;;;2.90;1.10;;;;;;;;;;5116423;28;20534;-88
2023/06/05 10:26:30;;;;;;;2.87;0.80;;;;;;;;;;5106942;28;20504;-80
2023/06/05 10:29:03;;;;;;;1.10;1.00;;;;;;;;;;5105978;28;20434;-84
2023/06/05 10:31:32;;;;;;;1.13;0.70;;;;;;;;;;5098924;28;20766;-81
2023/06/05 10:33:58;;;;;;;0.90;0.47;;;;;;;;;;5094721;28;20515;-84
2023/06/05 10:36:40;;;;;;;1.00;0.60;;;;;;;;;;5106089;28;20414;-80
2023/06/05 10:39:07;;;;;;;1.70;0.77;;;;;;;;;;5105303;28;20172;-80
2023/06/05 10:41:33;;;;;;;2.07;0.90;;;;;;;;;;5086778;28;20466;-83
2023/06/05 10:43:59;;;;;;;1.27;0.93;;;;;;;;;;5106364;28;20414;-80
2023/06/05 10:46:35;;;;;;;1.60;0.80;;;;;;;;;;5113967;28;20172;-82
2023/06/05 10:49:12;;;;;;;2.07;1.00;;;;;;;;;;5116330;28;20627;-81
2023/06/05 10:51:43;;;;;;;2.10;0.37;;;;;;;;;;5114734;28;20926;-82
2023/06/05 10:54:16;;;;;;;0.80;0.60;;;;;;;;;;5105055;28;20523;-80
2023/06/05 10:57:05;;;;;;;1.37;0.73;;;;;;;;;;5095913;28;20763;-82
2023/06/05 10:59:35;;;;;;;1.00;0.70;;;;;;;;;;5095776;28;20398;-81
2023/06/05 11:02:14;;;;;;;0.73;0.57;;;;;;;;;;5095700;28;20425;-81
2023/06/05 11:04:58;;;;;;;1.73;0.70;;;;;;;;;;5095322;28;20531;-81
2023/06/05 11:07:34;;;;;;;1.20;0.67;;;;;;;;;;5077384;28;20426;-80
2023/06/05 11:10:04;;;;;;;1.60;0.80;;;;;;;;;;5095597;28;20733;-80
2023/06/05 11:12:40;;;;;;;1.77;0.60;;;;;;;;;;5095335;28;20398;-80
2023/06/05 11:15:12;;;;;;;1.00;0.60;;;;;;;;;;5077241;28;20445;-81
2023/06/05 11:17:46;;;;;;;1.13;0.67;;;;;;;;;;5094970;28;20978;-84
2023/06/05 11:20:24;;;;;;;1.00;0.87;;;;;;;;;;5096469;28;20423;-82
2023/06/05 11:22:53;;;;;;;1.70;0.70;;;;;;;;;;5104565;28;20439;-85
2023/06/05 11:25:21;;;;;;;1.13;0.80;;;;;;;;;;5103845;28;20410;-88
2023/06/05 11:27:51;;;;;;;2.03;0.80;;;;;;;;;;5104569;28;20810;-83
2023/06/05 11:30:18;;;;;;;2.03;0.80;;;;;;;;;;5105678;28;20452;-88
2023/06/05 11:32:44;;;;;;;1.20;1.10;;;;;;;;;;5088164;28;20454;-87
2023/06/05 11:35:10;;;;;;;1.77;0.70;;;;;;;;;;5086264;28;20426;-81
2023/06/05 11:37:37;;;;;;;1.17;0.83;;;;;;;;;;5105291;28;20415;-81
2023/06/05 11:40:09;;;;;;;2.20;0.80;;;;;;;;;;5104919;28;20416;-87
2023/06/05 11:42:38;;;;;;;1.30;0.80;;;;;;;;;;5102888;28;20471;-90
2023/06/05 11:45:14;;;;;;;1.23;1.07;;;;;;;;;;5097553;28;20417;-90
2023/06/05 11:47:40;;;;;;;1.17;0.77;;;;;;;;;;5094741;28;20485;-80
2023/06/05 11:50:10;;;;;;;1.03;0.60;;;;;;;;;;5079041;28;20568;-80
2023/06/05 11:52:36;;;;;;;1.30;0.57;;;;;;;;;;5094760;28;20406;-89
2023/06/05 11:55:18;;;;;;;2.37;1.07;;;;;;;;;;5094638;28;20467;-86
2023/06/05 11:57:46;;;;;;;1.40;0.80;;;;;;;;;;5076434;28;20441;-80
2023/06/05 12:00:12;;;;;;;1.10;0.83;;;;;;;;;;5094531;28;20560;-83
2023/06/05 12:02:39;;;;;;;2.03;0.90;;;;;;;;;;5094450;28;20466;-80
2023/06/05 12:05:08;;;;;;;4.97;1.00;;;;;;;;;;5094038;28;20430;-80
2023/06/05 12:07:36;;;;;;;1.70;0.90;;;;;;;;;;5094422;28;20483;-80
2023/06/05 12:10:06;;;;;;;1.07;0.93;;;;;;;;;;5094320;28;20430;-83
2023/06/05 12:12:33;;;;;;;1.10;0.80;;;;;;;;;;5094311;28;20455;-80
2023/06/05 12:15:13;;;;;;;1.07;0.50;;;;;;;;;;5094253;28;20898;-80
2023/06/05 12:17:39;;;;;;;1.67;1.00;;;;;;;;;;5094104;28;20458;-79
2023/06/05 12:20:06;;;;;;;1.23;0.80;;;;;;;;;;5093857;28;20457;-81
2023/06/05 12:22:34;;;;;;;1.40;0.60;;;;;;;;;;5075873;28;20440;-80
2023/06/05 12:25:16;;;;;;;2.53;0.60;;;;;;;;;;5075936;28;20418;-80
2023/06/05 12:27:42;;;;;;;1.33;0.70;;;;;;;;;;5075896;28;20472;-81
2023/06/05 12:30:09;;;;;;;3.17;1.07;;;;;;;;;;5093819;28;20394;-80
2023/06/05 12:32:35;;;;;;;2.83;1.00;;;;;;;;;;5093870;28;20651;-80
2023/06/05 12:35:01;;;;;;;1.47;0.90;;;;;;;;;;5074729;28;20765;-81
2023/06/05 12:37:29;;;;;;;2.07;0.97;;;;;;;;;;5093752;28;20402;-82
2023/06/05 12:39:55;;;;;;;2.70;0.83;;;;;;;;;;5092730;28;20395;-80
2023/06/05 12:42:21;;;;;;;2.40;0.90;;;;;;;;;;5093736;28;20814;-79
2023/06/05 12:44:47;;;;;;;3.20;1.13;;;;;;;;;;5093667;28;20422;-79
2023/06/05 12:47:13;;;;;;;1.20;0.77;;;;;;;;;;5093634;28;20395;-79
2023/06/05 12:49:39;;;;;;;1.50;0.77;;;;;;;;;;5093326;28;20789;-89
2023/06/05 12:52:08;;;;;;;1.10;0.90;;;;;;;;;;5093534;28;20502;-88
2023/06/05 12:54:34;;;;;;;2.50;1.60;;;;;;;;;;5093542;28;20247;-80
2023/06/05 12:57:00;;;;;;;1.67;0.70;;;;;;;;;;5093711;28;20438;-88
2023/06/05 12:59:26;;;;;;;5.20;1.27;;;;;;;;;;5093867;28;20234;-92
2023/06/05 13:01:52;;;;;;;1.97;0.60;;;;;;;;;;5093828;28;20431;-89
2023/06/05 13:04:18;;;;;;;1.50;0.50;;;;;;;;;;5074828;28;20298;-84
2023/06/05 13:06:44;;;;;;;1.93;1.13;;;;;;;;;;5092965;28;20406;-79
2023/06/05 13:09:10;;;;;;;1.80;0.97;;;;;;;;;;5092943;28;20176;-80
2023/06/05 13:11:36;;;;;;;1.00;0.30;;;;;;;;;;5092154;28;20176;-79
2023/06/05 13:14:02;;;;;;;2.10;0.90;;;;;;;;;;5093261;28;20305;-79
2023/06/05 13:16:28;;;;;;;1.63;1.27;;;;;;;;;;5093126;28;20444;-85
2023/06/05 13:18:54;;;;;;;2.33;1.10;;;;;;;;;;5093042;28;20462;-82
2023/06/05 13:21:20;;;;;;;1.77;0.70;;;;;;;;;;5092820;28;20176;-79
2023/06/05 13:23:46;;;;;;;1.17;0.60;;;;;;;;;;5092618;28;20466;-82
2023/06/05 13:26:12;;;;;;;1.47;1.00;;;;;;;;;;5102066;28;20426;-83
2023/06/05 13:28:38;;;;;;;1.07;0.70;;;;;;;;;;5094096;28;20525;-79
2023/06/05 13:31:05;;;;;;;1.50;0.77;;;;;;;;;;5092587;28;20410;-79
2023/06/05 13:33:33;;;;;;;1.30;1.10;;;;;;;;;;5092626;28;20167;-79
2023/06/05 13:35:59;;;;;;;1.73;1.00;;;;;;;;;;5091976;28;20448;-78
2023/06/05 13:38:24;;;;;;;0.93;0.60;;;;;;;;;;5093181;28;20524;-78
2023/06/05 13:40:51;;;;;;;3.13;1.03;;;;;;;;;;5094347;28;20216;-78
2023/06/05 13:43:18;;;;;;;1.00;0.70;;;;;;;;;;5112730;28;20196;-79
2023/06/05 13:45:44;;;;;;;1.13;0.60;;;;;;;;;;5112808;28;20519;-78
2023/06/05 13:48:13;;;;;;;1.20;0.80;;;;;;;;;;5112819;28;20425;-78
2023/06/05 13:50:39;;;;;;;1.70;0.80;;;;;;;;;;5115098;28;20893;-79
2023/06/05 13:53:05;;;;;;;2.27;1.03;;;;;;;;;;5116701;28;20409;-80
2023/06/05 13:55:31;;;;;;;0.93;0.80;;;;;;;;;;5116940;28;20420;-80
2023/06/05 13:58:01;;;;;;;2.80;1.37;;;;;;;;;;5116930;28;20198;-85
2023/06/05 14:00:27;;;;;;;1.50;0.60;;;;;;;;;;5116893;28;20806;-79
2023/06/05 14:02:53;;;;;;;2.10;1.20;;;;;;;;;;5116767;28;20468;-78
2023/06/05 14:05:19;;;;;;;2.13;0.80;;;;;;;;;;5116362;28;20397;-79
2023/06/05 14:07:45;;;;;;;1.70;1.27;;;;;;;;;;5116767;28;20172;-78
2023/06/05 14:10:11;;;;;;;2.50;1.20;;;;;;;;;;5116513;28;20538;-79
2023/06/05 14:12:36;;;;;;;2.70;0.97;;;33.00;99.90;;;;;;5116565;28;20222;-79
2023/06/05 14:15:02;;;;;;;1.53;0.80;;;33.10;99.90;;;;;;5116606;28;20274;-81
2023/06/05 14:17:27;;;;;;;1.37;1.10;;;32.80;99.90;;;;;;5116498;28;20257;-78
2023/06/05 14:19:53;;;;;;;1.97;0.60;;;32.50;99.90;;;;;;5115790;28;20786;-78
2023/06/05 14:22:19;;;;;;;1.30;0.90;;;32.10;99.90;;;;;;5114717;28;20172;-78
2023/06/05 14:24:47;;;;;;;3.53;1.10;;;31.90;99.90;;;;;;5109672;28;20215;-78
2023/06/05 14:27:13;;;;;;;2.23;1.03;;;31.60;99.90;;;;;;5095971;28;20656;-78
2023/06/05 14:29:38;;;;;;;1.77;0.93;;;31.40;99.90;;;;;;5095930;28;20406;-78
2023/06/05 14:32:05;;;;;;;1.20;1.00;;;31.20;99.90;;;;;;5089048;28;20305;-77
2023/06/05 14:34:30;;;;;;;1.23;1.13;;;31.00;99.90;;;;;;5116228;28;20636;-79
2023/06/05 14:36:56;;;;;;;2.03;0.77;;;31.00;99.90;;;;;;5116457;28;20417;-78
2023/06/05 14:39:24;;;;;;;1.37;1.00;;;30.80;99.90;;;;;;5115867;28;20262;-78